Time;durP1;ratioP1;P1;durP2;ratioP2;P2;SDS_P1;SDS_P2;PMS_P1;PMS_P2;Temp;Humidity;BMP_temperature;BMP_pressure;BME280_temperature;BME280_humidity;BME280_pressure;Samples;Min_cycle;Max_cycle;Signal;HPM_P1;HPM_P2
2023/01/16 00:01:13;;;;;;;5.90;2.20;;;;;;;-145.18;100.00;60484.78;5043093;28;20393;-71
2023/01/16 00:03:39;;;;;;;8.37;2.10;;;;;;;-145.18;100.00;60484.78;5041791;28;20040;-71
2023/01/16 00:06:04;;;;;;;7.27;2.03;;;;;;;-145.18;100.00;60484.78;5043771;28;20033;-71
2023/01/16 00:08:30;;;;;;;7.13;1.90;;;;;;;-145.18;100.00;60484.78;5043233;28;20795;-72
2023/01/16 00:10:56;;;;;;;4.97;2.00;;;;;;;-145.18;100.00;60484.78;5049110;28;20028;-72
2023/01/16 00:13:21;;;;;;;6.17;1.90;;;;;;;-145.18;100.00;60484.78;5041834;28;20025;-71
2023/01/16 00:15:49;;;;;;;8.67;2.00;;;;;;;-145.18;100.00;60484.78;5046700;28;20025;-72
2023/01/16 00:18:14;;;;;;;6.23;2.07;;;;;;;-145.18;100.00;60484.78;5046862;28;20381;-72
2023/01/16 00:20:40;;;;;;;6.27;1.90;;;;;;;-145.18;100.00;60484.78;5050580;28;20021;-72
2023/01/16 00:23:05;;;;;;;7.27;2.00;;;;;;;-145.18;100.00;60484.78;5041199;28;20497;-71
2023/01/16 00:25:31;;;;;;;8.53;2.03;;;;;;;-145.18;100.00;60484.78;5049769;28;20045;-71
2023/01/16 00:27:56;;;;;;;7.17;2.00;;;;;;;-145.18;100.00;60484.78;5047214;28;20062;-72
2023/01/16 00:30:22;;;;;;;9.87;1.90;;;;;;;-145.18;100.00;60484.78;5044000;28;20082;-71
2023/01/16 00:32:48;;;;;;;8.97;2.00;;;;;;;-145.18;100.00;60484.78;5041599;28;20025;-71
2023/01/16 00:35:13;;;;;;;8.03;1.80;;;;;;;-145.18;100.00;60484.78;5045767;28;20546;-71
2023/01/16 00:37:39;;;;;;;9.30;1.93;;;;;;;-145.18;100.00;60484.78;5044567;28;20037;-71
2023/01/16 00:40:05;;;;;;;5.93;1.90;;;;;;;-145.18;100.00;60484.78;5043207;28;20067;-71
2023/01/16 00:42:30;;;;;;;7.37;1.73;;;;;;;-145.18;100.00;60484.78;5047947;28;20049;-71
2023/01/16 00:44:56;;;;;;;10.13;2.47;;;;;;;-145.18;100.00;60484.78;5046243;28;20084;-71
2023/01/16 00:47:21;;;;;;;9.37;1.90;;;;;;;-145.18;100.00;60484.78;5042878;28;20424;-71
2023/01/16 00:49:46;;;;;;;10.57;2.00;;;;;;;-145.18;100.00;60484.78;5040918;28;20103;-71
2023/01/16 00:52:12;;;;;;;4.60;1.80;;;;;;;-145.18;100.00;60484.78;5038692;28;20028;-71
2023/01/16 00:54:37;;;;;;;6.83;2.13;;;;;;;-145.18;100.00;60484.78;5041433;28;20025;-71
2023/01/16 00:57:03;;;;;;;9.77;2.20;;;;;;;-145.18;100.00;60484.78;5050140;28;20025;-71
2023/01/16 00:59:28;;;;;;;4.43;1.90;;;;;;;-145.18;100.00;60484.78;5046314;28;20020;-71
2023/01/16 01:01:53;;;;;;;5.70;1.97;;;;;;;-145.18;100.00;60484.78;5041281;28;20112;-71
2023/01/16 01:04:19;;;;;;;10.53;2.47;;;;;;;-145.18;100.00;60484.78;5044480;28;20029;-71
2023/01/16 01:06:44;;;;;;;8.63;2.20;;;;;;;-145.18;100.00;60484.78;5044579;28;20079;-71
2023/01/16 01:09:10;;;;;;;9.07;2.03;;;;;;;-145.18;100.00;60484.78;5046502;28;20017;-71
2023/01/16 01:11:35;;;;;;;11.90;2.00;;;;;;;-145.18;100.00;60484.78;5044991;28;20429;-71
2023/01/16 01:14:01;;;;;;;9.70;1.90;;;;;;;-145.18;100.00;60484.78;5042133;28;20436;-71
2023/01/16 01:16:26;;;;;;;11.80;2.80;;;;;;;-145.18;100.00;60484.78;5047305;28;20507;-72
2023/01/16 01:18:52;;;;;;;7.73;2.10;;;;;;;-145.18;100.00;60484.78;5039545;28;20024;-72
2023/01/16 01:21:17;;;;;;;11.73;2.27;;;;;;;-145.18;100.00;60484.78;5040869;28;20036;-72
2023/01/16 01:23:43;;;;;;;7.87;3.10;;;;;;;-145.18;100.00;60484.78;5046356;28;20021;-71
2023/01/16 01:26:11;;;;;;;10.23;2.43;;;;;;;-145.18;100.00;60484.78;5043473;28;20086;-72
2023/01/16 01:28:36;;;;;;;9.33;2.40;;;;;;;-145.18;100.00;60484.78;5043035;28;20025;-71
2023/01/16 01:31:07;;;;;;;7.27;2.00;;;;;;;-145.18;100.00;60484.78;5045875;28;20017;-71
2023/01/16 01:33:33;;;;;;;6.43;1.90;;;;;;;-145.18;100.00;60484.78;5046284;28;20385;-72
2023/01/16 01:35:58;;;;;;;8.53;2.00;;;;;;;-145.18;100.00;60484.78;5045359;28;20100;-72
2023/01/16 01:38:24;;;;;;;10.97;2.47;;;;;;;-145.18;100.00;60484.78;5037737;28;20132;-71
2023/01/16 01:40:49;;;;;;;10.13;2.57;;;;;;;-145.18;100.00;60484.78;5040606;28;20027;-71
2023/01/16 01:43:15;;;;;;;9.50;2.07;;;;;;;-145.18;100.00;60484.78;5042824;28;20032;-71
2023/01/16 01:45:46;;;;;;;12.87;2.40;;;;;;;-145.18;100.00;60484.78;5047392;28;20044;-72
2023/01/16 01:48:11;;;;;;;10.33;2.63;;;;;;;-145.18;100.00;60484.78;5038330;28;20698;-71
2023/01/16 01:50:55;;;;;;;9.43;2.43;;;;;;;-145.18;100.00;60484.78;5044088;28;20029;-71
2023/01/16 01:53:35;;;;;;;8.43;2.17;;;;;;;-145.18;100.00;60484.78;5042313;28;20028;-71
2023/01/16 01:56:07;;;;;;;9.67;2.40;;;;;;;-145.18;100.00;60484.78;5042834;28;20030;-72
2023/01/16 01:58:33;;;;;;;;;;;;;;;-145.18;100.00;60484.78;5037975;28;20033;-71
2023/01/16 02:01:00;;;;;;;6.10;2.20;;;;;;;-145.18;100.00;60484.78;5044598;28;20365;-70
2023/01/16 02:03:35;;;;;;;6.50;2.00;;;;;;;-145.18;100.00;60484.78;5051184;22;20130;-74
2023/01/16 02:06:05;;;;;;;9.17;2.60;;;;;;;-145.18;100.00;60484.78;5035880;28;20528;-74
2023/01/16 02:08:32;;;;;;;6.93;2.03;;;;;;;-145.18;100.00;60484.78;5047770;28;20100;-74
2023/01/16 02:11:25;;;;;;;5.33;2.17;;;;;;;-145.18;100.00;60484.78;5045980;28;20025;-74
2023/01/16 02:13:52;;;;;;;9.87;2.63;;;;;;;-145.18;100.00;60484.78;5046486;28;20108;-74
2023/01/16 02:19:17;;;;;;;5.80;2.20;;;;;;;-145.18;100.00;60484.78;5041816;28;20089;-73
2023/01/16 02:22:04;;;;;;;3.97;1.43;;;;;;;-145.18;100.00;60484.78;5047149;28;20021;-73
2023/01/16 02:24:30;;;;;;;5.60;2.30;;;;;;;-145.18;100.00;60484.78;5040471;28;20021;-74
2023/01/16 02:27:27;;;;;;;6.90;2.50;;;;;;;-145.18;100.00;60484.78;5044922;28;20037;-74
2023/01/16 02:30:19;;;;;;;7.83;2.90;;;;;;;-145.18;100.00;60484.78;5037802;28;20063;-74
2023/01/16 02:32:56;;;;;;;8.20;2.95;;;;;;;-145.18;100.00;60484.78;5045408;28;20021;-73
2023/01/16 02:35:45;;;;;;;9.90;3.73;;;;;;;-145.18;100.00;60484.78;5046196;28;20519;-74
2023/01/16 02:38:13;;;;;;;8.47;3.23;;;;;;;-145.18;100.00;60484.78;5044230;28;20029;-74
2023/01/16 02:40:48;;;;;;;7.63;2.70;;;;;;;-145.18;100.00;60484.78;5045359;28;20076;-74
2023/01/16 02:43:48;;;;;;;9.27;2.73;;;;;;;-145.18;100.00;60484.78;5050754;28;20037;-73
2023/01/16 02:46:34;;;;;;;8.67;2.90;;;;;;;-145.18;100.00;60484.78;5049346;28;20029;-73
2023/01/16 02:49:18;;;;;;;9.77;2.60;;;;;;;-145.18;100.00;60484.78;5039016;28;20119;-74
2023/01/16 02:52:09;;;;;;;8.37;2.80;;;;;;;-145.18;100.00;60484.78;5047016;28;20456;-74
2023/01/16 02:55:21;;;;;;;9.13;3.03;;;;;;;-145.18;100.00;60484.78;5044092;28;20036;-73
2023/01/16 02:57:59;;;;;;;6.75;2.80;;;;;;;-145.18;100.00;60484.78;5042418;28;20116;-75
2023/01/16 03:00:56;;;;;;;7.40;2.70;;;;;;;-145.18;100.00;60484.78;5048434;28;20033;-74
2023/01/16 03:03:59;;;;;;;9.00;2.60;;;;;;;-145.18;100.00;60484.78;5045360;28;20029;-73
2023/01/16 03:07:40;;;;;;;13.40;2.70;;;;;;;-145.18;100.00;60484.78;5025722;28;20042;-73
2023/01/16 03:10:25;;;;;;;6.57;2.47;;;;;;;-145.18;100.00;60484.78;5022022;28;20034;-74
2023/01/16 03:13:08;;;;;;;8.77;2.10;;;;;;;-145.18;100.00;60484.78;5024359;28;20028;-74
2023/01/16 03:17:04;;;;;;;5.03;2.17;;;;;;;-145.18;100.00;60484.78;5027864;28;20093;-74
2023/01/16 03:19:52;;;;;;;6.30;2.03;;;;;;;-145.18;100.00;60484.78;5031556;28;20036;-74
2023/01/16 03:22:59;;;;;;;4.47;1.73;;;;;;;-145.18;100.00;60484.78;5029190;28;20432;-74
2023/01/16 03:26:13;;;;;;;5.33;1.70;;;;;;;-145.18;100.00;60484.78;5021261;28;20056;-73
2023/01/16 03:29:04;;;;;;;4.57;1.83;;;;;;;-145.18;100.00;60484.78;5031086;28;20022;-72
2023/01/16 03:32:17;;;;;;;4.90;1.85;;;;;;;-145.18;100.00;60484.78;5026353;28;20018;-72
2023/01/16 03:35:02;;;;;;;4.27;1.87;;;;;;;-145.18;100.00;60484.78;5017985;28;20042;-71
2023/01/16 03:37:49;;;;;;;5.37;2.00;;;;;;;6.33;100.00;149047.94;5022560;28;20033;-71
2023/01/16 03:40:26;;;;;;;5.07;1.80;;;;;;;-145.18;100.00;60484.78;5031638;28;20426;-71
2023/01/16 03:43:34;;;;;;;7.27;1.80;;;;;;;-145.18;100.00;60484.78;5027635;28;20511;-71
2023/01/16 03:46:45;;;;;;;5.93;1.73;;;;;;;-145.18;100.00;60484.78;5022581;28;20033;-71
2023/01/16 03:49:39;;;;;;;4.97;1.90;;;;;;;-145.18;100.00;60484.78;5024677;28;20543;-71
2023/01/16 03:52:14;;;;;;;5.97;2.53;;;;;;;-145.18;100.00;60484.78;5025356;28;20025;-71
2023/01/16 03:55:44;;;;;;;4.77;1.90;;;;;;;-145.18;100.00;60484.78;5025224;28;20033;-71
2023/01/16 03:59:13;;;;;;;4.03;1.83;;;;;;;-145.18;100.00;60484.78;5026492;28;20108;-71
2023/01/16 04:03:00;;;;;;;5.50;1.70;;;;;;;-145.18;100.00;60484.78;5029260;28;20072;-71
2023/01/16 04:06:27;;;;;;;5.07;2.20;;;;;;;-145.18;100.00;60484.78;5033420;28;20072;-71
2023/01/16 04:09:40;;;;;;;5.70;1.83;;;;;;;-145.18;100.00;60484.78;5028231;28;20565;-71
2023/01/16 04:12:09;;;;;;;6.67;2.20;;;;;;;-145.18;100.00;60484.78;5030722;28;20056;-72
2023/01/16 04:14:55;;;;;;;5.73;2.10;;;;;;;-145.18;100.00;60484.78;5022440;28;20049;-71
2023/01/16 04:18:03;;;;;;;7.33;2.30;;;;;;;-145.18;100.00;60484.78;5032662;28;20029;-71
2023/01/16 04:20:55;;;;;;;5.23;2.47;;;;;;;-145.18;100.00;60484.78;5032995;28;20041;-71
2023/01/16 04:23:30;;;;;;;7.57;2.77;;;;;;;-145.18;100.00;60484.78;5032012;28;20433;-72
2023/01/16 04:26:37;;;;;;;7.10;2.60;;;;;;;;;;5041538;28;20029;-71
2023/01/16 04:29:16;;;;;;;6.27;3.23;;;;;;;-145.18;100.00;149047.94;5031061;28;20542;-71
2023/01/16 04:32:07;;;;;;;6.83;3.00;;;;;;;-145.18;100.00;60484.78;5043499;28;20496;-71
2023/01/16 04:34:49;;;;;;;14.53;3.97;;;;;;;-145.18;100.00;60484.78;5030935;28;20469;-71
2023/01/16 04:37:46;;;;;;;;;;;;;;;-145.18;100.00;60484.78;5033108;28;20384;-71
2023/01/16 04:41:04;;;;;;;7.93;3.07;;;;;;;-145.18;100.00;60484.78;5033403;28;20334;-71
2023/01/16 04:43:39;;;;;;;9.60;3.30;;;;;;;-145.18;100.00;60484.78;5030282;28;20477;-71
2023/01/16 04:46:28;;;;;;;6.57;3.00;;;;;;;-145.18;100.00;60484.78;5030108;28;20033;-72
2023/01/16 04:49:26;;;;;;;8.30;3.03;;;;;;;-145.18;100.00;60484.78;5032942;28;20064;-72
2023/01/16 04:52:20;;;;;;;7.77;3.10;;;;;;;-145.18;100.00;60484.78;5023314;28;20045;-71
2023/01/16 04:55:20;;;;;;;7.03;3.03;;;;;;;-145.18;100.00;60484.78;5029748;28;20040;-71
2023/01/16 04:58:13;;;;;;;6.17;2.80;;;;;;;-145.18;100.00;60484.78;5033286;28;20500;-71
2023/01/16 05:00:39;;;;;;;9.90;3.70;;;;;;;-145.18;100.00;60484.78;5029398;28;20052;-72
2023/01/16 05:03:13;;;;;;;10.57;4.13;;;;;;;-145.18;100.00;60484.78;5017274;28;20434;-72
2023/01/16 05:05:42;;;;;;;8.30;3.77;;;;;;;-145.18;100.00;60484.78;5031902;28;20384;-72
2023/01/16 05:08:17;;;;;;;8.90;3.63;;;;;;;-145.18;100.00;60484.78;5028024;28;20071;-71
2023/01/16 05:10:42;;;;;;;9.47;3.87;;;;;;;-145.18;100.00;60484.78;5030125;28;20404;-72
2023/01/16 05:13:48;;;;;;;9.60;3.97;;;;;;;-145.18;100.00;60484.78;5032516;28;20029;-72
2023/01/16 05:16:30;;;;;;;8.63;4.10;;;;;;;-145.18;100.00;60484.78;5024570;28;20112;-72
2023/01/16 05:19:14;;;;;;;12.87;4.67;;;;;;;-145.18;100.00;60484.78;5031116;28;20021;-72
2023/01/16 05:21:46;;;;;;;11.30;5.17;;;;;;;-145.18;100.00;60484.78;5032247;28;20388;-72
2023/01/16 05:24:16;;;;;;;14.63;5.40;;;;;;;-145.18;100.00;60484.78;5030384;28;20385;-71
2023/01/16 05:26:53;;;;;;;18.10;5.27;;;;;;;-145.18;100.00;60484.78;5032950;28;20037;-72
2023/01/16 05:29:18;;;;;;;12.13;5.17;;;;;;;-145.18;100.00;60484.78;5034524;28;20033;-72
2023/01/16 05:32:02;;;;;;;9.47;4.87;;;;;;;-145.18;100.00;60484.78;5029979;28;20025;-71
2023/01/16 05:34:27;;;;;;;11.60;5.20;;;;;;;-145.18;100.00;60484.78;5029208;28;20038;-72
2023/01/16 05:37:03;;;;;;;10.10;5.40;;;;;;;-145.18;100.00;60484.78;5033676;28;20021;-72
2023/01/16 05:39:42;;;;;;;13.63;5.67;;;;;;;-145.18;100.00;60484.78;5038590;28;20031;-71
2023/01/16 05:42:20;;;;;;;11.13;5.40;;;;;;;-145.18;100.00;60484.78;5037477;28;20022;-71
2023/01/16 05:44:50;;;;;;;11.13;5.50;;;;;;;-145.18;100.00;60484.78;5029970;28;20060;-71
2023/01/16 05:47:32;;;;;;;13.10;5.77;;;;;;;-145.18;100.00;60484.78;5040856;28;20017;-72
2023/01/16 05:50:04;;;;;;;;;;;;;;;-145.18;100.00;60484.78;5013244;28;20398;-72
2023/01/16 05:52:51;;;;;;;16.33;5.47;;;;;;;-145.18;100.00;60484.78;5022824;28;20322;-71
2023/01/16 05:55:19;;;;;;;12.80;5.53;;;;;;;-145.18;100.00;60484.78;5043005;28;20044;-72
2023/01/16 05:58:19;;;;;;;17.90;5.57;;;;;;;-145.18;100.00;60484.78;5028558;28;20033;-71
2023/01/16 06:01:39;;;;;;;17.63;5.97;;;;;;;-145.18;100.00;60484.78;5027975;28;20029;-71
2023/01/16 06:04:38;;;;;;;13.63;5.70;;;;;;;-145.18;100.00;60484.78;5032355;28;20127;-71
2023/01/16 06:07:06;;;;;;;11.77;5.30;;;;;;;-145.18;100.00;60484.78;5037995;28;20095;-71
2023/01/16 06:09:31;;;;;;;13.43;5.77;;;;;;;-145.18;100.00;60484.78;5033137;28;20468;-70
2023/01/16 06:12:04;;;;;;;10.63;5.00;;;;;;;-145.18;100.00;60484.78;5027857;28;20060;-71
2023/01/16 06:14:53;;;;;;;18.43;5.63;;;;;;;-145.18;100.00;60484.78;5031412;28;20499;-72
2023/01/16 06:17:23;;;;;;;14.30;5.97;;;;;;;-145.18;100.00;60484.78;5027193;28;20500;-71
2023/01/16 06:19:53;;;;;;;12.50;4.73;;;;;;;-145.18;100.00;60484.78;5038637;28;20031;-71
2023/01/16 06:22:21;;;;;;;11.83;5.80;;;;;;;-145.18;100.00;60484.78;5034030;28;20026;-72
2023/01/16 06:25:22;;;;;;;14.63;5.97;;;;;;;-145.18;100.00;60484.78;5030474;28;20044;-72
2023/01/16 06:28:04;;;;;;;15.17;5.93;;;;;;;-145.18;100.00;60484.78;5030352;28;20029;-71
2023/01/16 06:30:30;;;;;;;13.50;6.17;;;;;;;2.50;100.00;148076.56;5029577;28;20240;-71
2023/01/16 06:32:55;;;;;;;10.33;4.67;;;;;;;2.54;100.00;148086.81;5025678;28;20017;-72
2023/01/16 06:35:20;;;;;;;12.10;4.67;;;;;;;2.54;100.00;148086.81;5022233;28;20040;-71
2023/01/16 06:37:46;;;;;;;14.43;4.93;;;;;;;2.60;100.00;148103.56;5029302;28;20128;-72
2023/01/16 06:40:11;;;;;;;12.93;4.60;;;;;;;2.60;100.00;148103.56;5031150;28;20500;-72
2023/01/16 06:42:36;;;;;;;9.40;4.57;;;;;;;2.68;100.00;148122.88;5034275;28;20030;-73
2023/01/16 06:45:02;;;;;;;11.00;4.87;;;;;;;2.59;100.00;148101.00;5035762;28;20029;-73
2023/01/16 06:47:27;;;;;;;12.57;4.70;;;;;;;2.52;100.00;148082.97;5034752;28;20029;-71
2023/01/16 06:49:53;;;;;;;14.40;4.90;;;;;;;2.44;100.00;148062.44;5035204;28;20487;-71
2023/01/16 06:52:18;;;;;;;11.03;4.53;;;;;;;2.45;100.00;148063.72;5035002;28;20017;-71
2023/01/16 06:54:44;;;;;;;11.17;4.90;;;;;;;2.59;100.00;148099.72;5018546;28;20152;-70
2023/01/16 06:57:09;;;;;;;8.43;4.13;;;;;;;2.67;100.00;148119.03;5023977;28;20029;-71
2023/01/16 06:59:34;;;;;;;9.43;3.53;;;;;;;2.82;100.00;148158.88;5035099;28;20025;-71
2023/01/16 07:02:00;;;;;;;7.43;2.30;;;;;;;2.91;100.00;148182.06;5034136;28;20022;-72
2023/01/16 07:04:25;;;;;;;8.30;2.60;;;;;;;2.93;100.00;148185.91;5034880;28;20112;-72
2023/01/16 07:06:50;;;;;;;6.03;1.90;;;;;;;2.97;100.00;148196.19;5034357;28;20091;-71
2023/01/16 07:09:16;;;;;;;5.87;2.40;;;;;;;2.92;100.00;148183.34;5035001;28;20535;-71
2023/01/16 07:11:42;;;;;;;7.93;2.80;;;;;;;2.85;100.00;148166.59;5035160;28;20033;-70
2023/01/16 07:22:35;;;;;;;9.30;2.13;;;;;;;2.88;100.00;148174.31;5034699;28;20029;-71
2023/01/16 07:25:05;;;;;;;6.17;2.10;;;;;;;2.85;100.00;148165.31;5034692;28;20032;-72
2023/01/16 07:27:31;;;;;;;6.73;2.30;;;;;;;2.82;100.00;148158.88;5033548;28;20033;-72
2023/01/16 07:29:56;;;;;;;4.33;1.70;;;;;;;2.87;100.00;148171.72;5020172;28;20095;-72
2023/01/16 07:32:22;;;;;;;3.40;1.47;;;;;;;2.91;100.00;148182.06;5018823;28;20477;-72
2023/01/16 07:34:47;;;;;;;3.30;1.23;;;;;;;3.02;100.00;148207.75;5032808;28;20033;-72
2023/01/16 07:37:12;;;;;;;7.70;1.70;;;;;;;3.07;100.00;148220.63;5034359;28;20021;-72
2023/01/16 07:39:38;;;;;;;6.03;2.30;;;;;;;3.09;100.00;148225.78;5032682;28;20021;-72
2023/01/16 07:42:05;;;;;;;6.73;2.40;;;;;;;3.07;100.00;148220.63;5034633;28;20126;-72
2023/01/16 07:44:30;;;;;;;6.07;2.43;;;;;;;3.11;100.00;148230.91;5034195;28;20022;-72
2023/01/16 07:46:56;;;;;;;3.87;1.13;;;;;;;3.20;100.00;148254.09;5033617;28;20132;-72
2023/01/16 07:49:21;;;;;;;4.87;1.37;;;;;;;3.27;100.00;148272.13;5033358;28;20547;-72
2023/01/16 07:51:46;;;;;;;6.77;1.60;;;;;;;3.28;100.00;148274.69;5033968;28;20108;-73
2023/01/16 07:54:13;;;;;;;6.00;1.90;;;;;;;3.26;100.00;148269.50;5034280;28;20030;-72
2023/01/16 07:56:39;;;;;;;2.10;1.07;;;;;;;3.30;100.00;148278.56;5034098;28;20021;-71
2023/01/16 07:59:04;;;;;;;2.20;1.00;;;;;;;3.33;100.00;148287.53;5032357;28;20104;-72
2023/01/16 08:01:30;;;;;;;7.00;1.77;;;;;;;3.32;100.00;148283.69;5032812;28;20032;-72
2023/01/16 08:03:55;;;;;;;3.97;1.30;;;;;;;3.32;100.00;148283.69;5031613;28;20492;-72
2023/01/16 08:06:22;;;;;;;3.60;1.40;;;;;;;3.35;100.00;148292.69;5034092;28;20472;-72
2023/01/16 08:08:47;;;;;;;4.23;1.40;;;;;;;3.37;100.00;148297.81;5033312;28;20060;-72
2023/01/16 08:13:56;;;;;;;3.00;1.47;;;;;;;3.41;100.00;148308.16;5033601;28;20483;-71
2023/01/16 08:16:21;;;;;;;2.83;1.20;;;;;;;3.46;100.00;148321.00;5033998;28;20049;-72
2023/01/16 08:18:48;;;;;;;3.23;1.30;;;;;;;3.48;100.00;148324.84;5031635;28;20049;-72
2023/01/16 08:21:15;;;;;;;1.87;1.17;;;;;;;3.48;100.00;148326.16;5033598;28;20033;-72
2023/01/16 08:23:40;;;;;;;4.20;1.50;;;;;;;3.53;100.00;148337.75;5033838;28;20436;-72
2023/01/16 08:26:05;;;;;;;2.03;1.20;;;;;;;3.57;100.00;148346.75;5032178;28;20065;-72
2023/01/16 08:28:31;;;;;;;3.00;1.20;;;;;;;3.61;100.00;148357.03;5033722;28;20469;-71
2023/01/16 08:31:03;;;;;;;3.63;1.30;;;;;;;3.66;100.00;148369.94;5033710;28;20029;-72
2023/01/16 08:33:29;;;;;;;2.43;1.10;;;;;;;3.70;100.00;148381.50;5031684;28;20033;-72
2023/01/16 08:35:57;;;;;;;4.53;1.20;;;;;;;3.77;100.00;148398.28;5033365;28;20031;-73
2023/01/16 08:38:22;;;;;;;1.93;0.80;;;;;;;3.83;100.00;148413.69;5033200;28;20025;-72
2023/01/16 08:40:47;;;;;;;2.07;1.00;;;;;;;3.89;100.00;148429.16;5033322;28;20086;-71
2023/01/16 08:51:25;;;;;;;1.77;0.80;;;;;;;4.04;100.00;148467.78;5017058;28;20107;-72
2023/01/16 08:53:54;;;;;;;3.03;0.97;;;;;;;4.13;100.00;148489.69;5021390;28;20041;-71
2023/01/16 08:56:21;;;;;;;4.90;1.20;;;;;;;4.21;100.00;148508.97;5032841;28;20068;-72
2023/01/16 08:58:46;;;;;;;1.40;0.80;;;;;;;4.28;100.00;148527.03;5032915;28;20038;-72
2023/01/16 09:01:12;;;;;;;2.83;0.97;;;;;;;4.30;100.00;148533.47;5033068;28;20036;-72
2023/01/16 09:03:38;;;;;;;3.70;1.20;;;;;;;4.37;100.00;148550.22;5030676;28;20473;-72
2023/01/16 09:06:03;;;;;;;3.47;1.27;;;;;;;4.40;100.00;148557.94;5032234;28;20037;-72
2023/01/16 09:08:28;;;;;;;2.33;1.00;;;;;;;4.46;100.00;148573.38;5033018;28;20025;-72
2023/01/16 09:13:49;;;;;;;2.33;0.80;;;;;;;4.50;100.00;148583.72;5031563;28;20172;-72
2023/01/16 09:16:24;;;;;;;3.53;1.10;;;;;;;4.54;100.00;148594.00;5032838;28;20112;-71
2023/01/16 09:18:50;;;;;;;1.27;0.70;;;;;;;4.56;100.00;148599.16;5030935;28;20421;-72
2023/01/16 09:21:22;;;;;;;1.90;0.73;;;;;;;4.61;100.00;148612.06;5032636;28;20485;-72
2023/01/16 09:23:47;;;;;;;2.17;0.80;;;;;;;4.63;100.00;148617.22;5031511;28;20029;-72
2023/01/16 09:26:13;;;;;;;0.93;0.63;;;;;;;4.63;100.00;148615.94;5032805;28;20116;-72
2023/01/16 09:28:38;;;;;;;2.37;0.93;;;;;;;4.65;100.00;148622.38;5032354;28;20664;-72
2023/01/16 09:31:04;;;;;;;1.33;0.70;;;;;;;4.66;100.00;148624.94;5028979;28;20022;-72
2023/01/16 09:33:29;;;;;;;2.53;0.83;;;;;;;4.69;100.00;148632.66;5031167;28;20033;-72
2023/01/16 09:35:55;;;;;;;0.60;0.60;;;;;;;4.73;100.00;148641.72;5030768;28;20028;-72
2023/01/16 09:38:21;;;;;;;1.73;0.90;;;;;;;4.77;100.00;148650.72;5025842;28;20024;-71
2023/01/16 09:40:50;;;;;;;1.13;0.70;;;;;;;4.77;100.00;148650.72;5030440;28;20022;-72
2023/01/16 09:43:40;;;;;;;1.50;0.87;;;;;;;4.75;100.00;148645.56;5030734;28;20025;-71
2023/01/16 09:46:09;;;;;;;1.17;0.80;;;;;;;4.82;100.00;148663.59;5031589;28;20377;-71
2023/01/16 09:48:45;;;;;;;2.83;1.00;;;;;;;4.82;100.00;148663.59;5029838;28;20036;-72
2023/01/16 09:51:16;;;;;;;4.10;1.00;;;;;;;4.85;100.00;148671.34;5032273;28;20022;-72
2023/01/16 09:59:58;;;;;;;2.95;0.90;;;;;;;4.96;100.00;148699.66;5032097;28;20068;-72
2023/01/16 10:02:27;;;;;;;4.13;1.43;;;;;;;4.98;100.00;148704.84;5030877;28;20021;-73
2023/01/16 10:04:55;;;;;;;2.07;0.87;;;;;;;4.96;100.00;148699.66;5031303;28;20030;-72
2023/01/16 10:07:29;;;;;;;5.63;1.30;;;;;;;4.97;100.00;148703.56;5029331;28;20037;-73
2023/01/16 10:10:16;;;;;;;2.10;1.00;;;;;;;4.97;100.00;148702.28;5030661;28;20108;-72
2023/01/16 10:12:51;;;;;;;2.20;0.83;;;;;;;4.96;100.00;148700.94;5031559;28;20028;-72
2023/01/16 10:15:36;;;;;;;1.83;0.97;;;;;;;4.96;100.00;148699.66;5031548;28;20171;-72
2023/01/16 10:18:21;;;;;;;2.37;1.20;;;;;;;4.92;100.00;148689.38;5029679;28;20427;-72
2023/01/16 10:21:20;;;;;;;2.87;1.37;;;;;;;4.89;100.00;148681.66;5031507;28;20025;-72
2023/01/16 10:24:23;;;;;;;3.37;1.00;;;;;;;4.85;100.00;148671.34;5031339;28;20534;-72
2023/01/16 10:27:32;;;;;;;2.03;1.20;;;;;;;4.85;100.00;148671.34;5031372;28;20030;-72
2023/01/16 10:30:00;;;;;;;3.80;1.30;;;;;;;4.86;100.00;148673.94;4983590;28;20272;-71
2023/01/16 10:32:49;;;;;;;2.60;0.97;;;;;;;4.88;100.00;148679.06;5012507;28;20033;-71
2023/01/16 10:35:29;;;;;;;2.77;0.97;;;;;;;4.92;100.00;148689.38;5031497;28;20021;-72
2023/01/16 10:37:58;;;;;;;3.43;1.23;;;;;;;4.95;100.00;148697.09;5031631;28;20029;-72
2023/01/16 10:40:27;;;;;;;3.53;1.10;;;;;;;5.01;100.00;148712.56;5029805;28;20040;-72
2023/01/16 10:51:27;;;;;;;1.10;0.83;;;;;;;5.11;100.00;148737.09;5031291;28;20048;-72
2023/01/16 10:53:52;;;;;;;2.40;0.90;;;;;;;5.13;100.00;148743.50;5026238;28;20407;-72
2023/01/16 10:56:18;;;;;;;3.93;1.13;;;;;;;5.12;100.00;148740.94;5011470;28;20026;-72
2023/01/16 10:58:43;;;;;;;2.17;0.77;;;;;;;5.09;100.00;148733.22;5010318;28;20025;-72
2023/01/16 11:01:19;;;;;;;1.43;0.80;;;;;;;5.06;100.00;148725.44;5016415;28;20029;-72
2023/01/16 11:03:56;;;;;;;2.73;0.83;;;;;;;5.06;100.00;148724.16;5029287;28;20048;-72
2023/01/16 11:06:23;;;;;;;2.43;1.00;;;;;;;5.03;100.00;148716.44;5028633;28;20116;-71
2023/01/16 11:08:54;;;;;;;1.10;0.73;;;;;;;5.03;100.00;148717.72;5031167;28;20025;-72
2023/01/16 11:20:34;;;;;;;1.83;0.80;;;;;;;5.02;100.00;148715.16;5030934;28;20032;-72
2023/01/16 11:23:13;;;;;;;2.20;0.80;;;;;;;5.05;100.00;148722.88;5031138;28;20357;-72
2023/01/16 11:25:39;;;;;;;2.30;1.03;;;;;;;5.02;100.00;148715.16;5027945;28;20468;-72
2023/01/16 11:28:09;;;;;;;5.00;1.00;;;;;;;5.02;100.00;148715.16;5033049;28;20147;-72
2023/01/16 11:30:42;;;;;;;1.43;0.90;;;;;;;4.99;100.00;148708.72;5034781;28;20025;-72
2023/01/16 11:33:40;;;;;;;6.37;1.37;;;;;;;4.99;100.00;148708.72;5032427;28;20051;-71
2023/01/16 11:36:07;;;;;;;2.50;1.10;;;;;;;4.98;100.00;148704.84;5034149;28;20424;-71
2023/01/16 11:38:35;;;;;;;4.70;1.10;;;;;;;4.97;100.00;148703.56;5031404;28;20634;-72
2023/01/16 11:41:07;;;;;;;3.27;1.13;;;;;;;5.00;100.00;148710.00;5032559;28;20129;-72
2023/01/16 11:46:36;;;;;;;2.57;0.87;;;;;;;5.10;100.00;148735.78;5033195;28;20095;-72
2023/01/16 11:49:18;;;;;;;3.23;1.10;;;;;;;5.07;100.00;148728.03;5033071;28;20044;-70
2023/01/16 11:51:48;;;;;;;3.47;1.10;;;;;;;5.04;100.00;148720.31;5034215;28;20151;-71
2023/01/16 11:54:16;;;;;;;4.90;1.37;;;;;;;5.03;100.00;148717.72;5034087;28;20029;-72
2023/01/16 11:56:47;;;;;;;5.93;1.23;;;;;;;5.02;100.00;148715.16;5034121;28;20060;-72
2023/01/16 11:59:34;;;;;;;1.75;1.00;;;;;;;5.03;100.00;148716.44;5032556;28;20082;-71
2023/01/16 12:02:35;;;;;;;1.33;0.70;;;;;;;5.02;100.00;148715.16;5014497;28;20034;-72
2023/01/16 12:08:11;;;;;;;1.57;0.90;;;;;;;5.04;100.00;148720.31;5033841;28;20052;-72
2023/01/16 12:11:06;;;;;;;2.60;1.07;;;;;;;5.06;100.00;148725.44;5032648;28;20036;-72
2023/01/16 12:16:58;;;;;;;4.20;1.20;;;;;;;5.24;100.00;148771.88;5034043;28;20091;-72
2023/01/16 12:19:56;;;;;;;2.80;1.10;;;;;;;5.36;100.00;148801.53;5031941;28;20052;-71
2023/01/16 12:22:45;;;;;;;2.57;0.90;;;;;;;5.49;100.00;148833.78;5033533;28;20032;-71
2023/01/16 12:25:55;;;;;;;2.80;1.20;;;;;;;5.60;100.00;148862.13;5031912;28;20033;-73
2023/01/16 12:28:20;;;;;;;2.40;0.77;;;;;;;5.68;100.00;148882.75;5016034;28;20029;-73
2023/01/16 12:31:00;;;;;;;1.87;0.80;;;;;;;5.69;100.00;148884.03;5033452;28;20040;-71
2023/01/16 12:33:51;;;;;;;2.50;0.93;;;;;;;5.72;100.00;148893.09;5031614;28;20040;-72
2023/01/16 12:36:53;;;;;;;2.05;1.02;;;;;;;5.61;100.00;148864.72;5033330;28;20079;-73
2023/01/16 12:39:45;;;;;;;3.40;0.75;;;;;;;5.53;100.00;148845.34;5012631;28;20033;-71
2023/01/16 12:45:20;;;;;;;1.83;0.90;;;;;;;5.47;100.00;148828.63;5023302;28;20048;-72
2023/01/16 12:48:08;;;;;;;1.67;0.80;;;;;;;5.45;100.00;148823.41;5031077;28;20398;-72
2023/01/16 12:51:06;;;;;;;1.97;0.80;;;;;;;5.47;100.00;148828.63;5033597;28;20049;-71
2023/01/16 12:53:49;;;;;;;3.67;0.93;;;;;;;5.47;100.00;148829.91;5013828;28;20124;-72
2023/01/16 12:56:26;;;;;;;1.73;0.80;;;;;;;5.47;100.00;148828.63;5033213;28;20041;-72
2023/01/16 12:59:12;;;;;;;2.03;0.63;;;;;;;5.50;100.00;148836.34;5031653;28;20025;-72
2023/01/16 13:01:41;;;;;;;3.50;1.20;;;;;;;5.46;100.00;148826.03;5032765;28;20492;-71